Latest Weather Observations for Thevenard

IDS60801

Issued at 9:31 pm CST Saturday 1 October 2016 (issued every 30 minutes, with the page automatically refreshed every 10 minutes)

About weather observations | Map of weather stations | Latest weather observations for SA | Other Formats
Station Details ID: 018200 Name: THEVENARD WIND Lat: -32.18 Lon: 133.63 Height: 8.54 m
Data from the previous 72 hours. | See also: Recent months for locations in South Australia
Date/Time
CST
Temp
°C
App
Temp
°C
Dew
Point
°C
Rel
Hum
%
Delta-T
°C
Wind Press
QNH
hPa
Press
MSL
hPa
Rain since
9am
mm
Dir  Spd
km/h
Gust
km/h
Spd
kts
Gust
kts
01/09:30pm - - - - - NE 13 15 7 8 - - -
01/09:00pm - - - - - ENE 11 13 6 7 - - -
01/08:30pm - - - - - NE 7 9 4 5 - - -
01/08:00pm - - - - - NE 9 11 5 6 - - -
01/07:30pm - - - - - NE 9 11 5 6 - - -
01/07:00pm - - - - - NW 4 9 2 5 - - -
01/06:30pm - - - - - SW 11 17 6 9 - - -
01/06:00pm - - - - - SW 20 22 11 12 - - -
01/05:30pm - - - - - SW 24 28 13 15 - - -
01/05:00pm - - - - - SW 26 32 14 17 - - -
01/04:30pm - - - - - SW 32 37 17 20 - - -
01/04:00pm - - - - - SW 37 44 20 24 - - -
01/03:42pm - - - - - WNW 35 46 19 25 - - -
01/03:41pm - - - - - NW 33 43 18 23 - - -
01/03:30pm - - - - - NNW 35 43 19 23 - - -
01/03:13pm - - - - - NW 37 56 20 30 - - -
01/03:00pm - - - - - NNW 33 48 18 26 - - -
01/02:58pm - - - - - NNW 30 48 16 26 - - -
01/02:30pm - - - - - N 35 41 19 22 - - -
01/02:00pm - - - - - N 32 39 17 21 - - -
01/01:30pm - - - - - - - - - - - - -
01/01:00pm - - - - - NNE 35 46 19 25 - - -
01/12:30pm - - - - - NNE 32 43 17 23 - - -
01/12:00pm - - - - - NNE 32 39 17 21 - - -
01/11:30am - - - - - NNE 33 43 18 23 - - -
01/11:00am - - - - - NNE 35 46 19 25 - - -
01/10:30am - - - - - NNE 37 46 20 25 - - -
01/10:00am - - - - - NNE 33 41 18 22 - - -
01/09:30am - - - - - NNE 33 41 18 22 - - -
01/09:00am - - - - - NNE 35 44 19 24 - - -
01/08:30am - - - - - NNE 32 41 17 22 - - -
01/08:00am - - - - - NNE 35 44 19 24 - - -
01/07:30am - - - - - NNE 30 37 16 20 - - -
01/07:00am - - - - - NNE 33 39 18 21 - - -
01/06:30am - - - - - NNE 32 39 17 21 - - -
01/06:00am - - - - - NNE 33 41 18 22 - - -
01/05:30am - - - - - NE 28 32 15 17 - - -
01/05:00am - - - - - NE 28 35 15 19 - - -
01/04:30am - - - - - NE 30 33 16 18 - - -
01/04:00am - - - - - NE 28 33 15 18 - - -
01/03:30am - - - - - NE 28 33 15 18 - - -
01/03:00am - - - - - NE 30 37 16 20 - - -
01/02:30am - - - - - NE 26 32 14 17 - - -
01/02:00am - - - - - NE 24 30 13 16 - - -
01/01:30am - - - - - NE 22 24 12 13 - - -
01/01:00am - - - - - NE 20 24 11 13 - - -
01/12:30am - - - - - NE 20 24 11 13 - - -
01/12:00am - - - - - NE 19 20 10 11 - - -
 
Date/Time
CST
Temp
°C
App
Temp
°C
Dew
Point
°C
Rel
Hum
%
Delta-T
°C
Wind Press
QNH
hPa
Press
MSL
hPa
Rain since
9am
mm
Dir  Spd
km/h
Gust
km/h
Spd
kts
Gust
kts
30/11:30pm - - - - - ENE 17 19 9 10 - - -
30/11:00pm - - - - - ENE 15 17 8 9 - - -
30/10:30pm - - - - - ENE 11 13 6 7 - - -
30/10:00pm - - - - - ESE 6 11 3 6 - - -
30/09:30pm - - - - - SE 7 11 4 6 - - -
30/09:00pm - - - - - SSE 9 11 5 6 - - -
30/08:30pm - - - - - S 9 11 5 6 - - -
30/08:00pm - - - - - SSE 9 11 5 6 - - -
30/07:30pm - - - - - SSE 11 13 6 7 - - -
30/07:00pm - - - - - S 13 17 7 9 - - -
30/06:30pm - - - - - S 11 15 6 8 - - -
30/06:00pm - - - - - SSW 15 17 8 9 - - -
30/05:30pm - - - - - SSW 17 20 9 11 - - -
30/05:00pm - - - - - SSW 19 24 10 13 - - -
30/04:30pm - - - - - SSW 24 28 13 15 - - -
30/04:00pm - - - - - SSW 17 20 9 11 - - -
30/03:30pm - - - - - SSW 24 28 13 15 - - -
30/03:00pm - - - - - SSW 22 30 12 16 - - -
30/02:30pm - - - - - S 26 30 14 16 - - -
30/02:00pm - - - - - SSW 28 33 15 18 - - -
30/01:30pm - - - - - SW 20 26 11 14 - - -
30/01:00pm - - - - - SW 24 28 13 15 - - -
30/12:30pm - - - - - SSW 17 20 9 11 - - -
30/12:00pm - - - - - SW 17 24 9 13 - - -
30/11:30am - - - - - SW 19 28 10 15 - - -
30/11:00am - - - - - SSW 22 32 12 17 - - -
30/10:30am - - - - - SSW 24 32 13 17 - - -
30/10:00am - - - - - SSW 26 33 14 18 - - -
30/09:30am - - - - - SSW 30 37 16 20 - - -
30/09:00am - - - - - SSW 30 44 16 24 - - -
30/08:30am - - - - - SW 33 39 18 21 - - -
30/08:00am - - - - - SSW 28 41 15 22 - - -
30/07:30am - - - - - SSW 41 50 22 27 - - -
30/07:00am - - - - - SSW 37 46 20 25 - - -
30/06:30am - - - - - SW 32 39 17 21 - - -
30/06:00am - - - - - SSW 43 50 23 27 - - -
30/05:30am - - - - - SSW 39 50 21 27 - - -
30/05:00am - - - - - SSW 33 41 18 22 - - -
30/04:30am - - - - - SSW 37 50 20 27 - - -
30/04:00am - - - - - SSW 35 48 19 26 - - -
30/03:32am - - - - - SSW 33 54 18 29 - - -
30/03:30am - - - - - SSW 33 43 18 23 - - -
30/03:06am - - - - - S 37 56 20 30 - - -
30/03:00am - - - - - SSW 39 48 21 26 - - -
30/02:30am - - - - - SSW 44 54 24 29 - - -
30/02:01am - - - - - SSW 46 65 25 35 - - -
30/02:00am - - - - - SSW 48 65 26 35 - - -
30/01:55am - - - - - SSW 44 63 24 34 - - -
30/01:30am - - - - - SSW 41 50 22 27 - - -
30/01:02am - - - - - SSW 43 67 23 36 - - -
30/01:00am - - - - - SSW 41 52 22 28 - - -
30/12:30am - - - - - SSW 44 56 24 30 - - -
30/12:00am - - - - - SSW 48 56 26 30 - - -
 
Date/Time
CST
Temp
°C
App
Temp
°C
Dew
Point
°C
Rel
Hum
%
Delta-T
°C
Wind Press
QNH
hPa
Press
MSL
hPa
Rain since
9am
mm
Dir  Spd
km/h
Gust
km/h
Spd
kts
Gust
kts
29/11:30pm - - - - - SSW 50 59 27 32 - - -
29/11:00pm - - - - - SSW 52 65 28 35 - - -
29/10:30pm - - - - - SSW 52 63 28 34 - - -
29/10:00pm - - - - - SSW 52 65 28 35 - - -
29/09:39pm - - - - - SSW 52 70 28 38 - - -
29/09:30pm - - - - - SSW 52 65 28 35 - - -
29/09:00pm - - - - - SSW 59 74 32 40 - - -
29/08:54pm - - - - - SSW 54 72 29 39 - - -
29/08:30pm - - - - - SSW 52 65 28 35 - - -
29/08:05pm - - - - - SSW 50 70 27 38 - - -
29/08:00pm - - - - - SSW 50 61 27 33 - - -
29/07:30pm - - - - - SSW 57 69 31 37 - - -
29/07:00pm - - - - - SSW 56 74 30 40 - - -
29/06:30pm - - - - - SSW 52 72 28 39 - - -
29/06:00pm - - - - - SSW 50 69 27 37 - - -
29/05:30pm - - - - - SSW 48 57 26 31 - - -
29/05:00pm - - - - - SSW 50 67 27 36 - - -
29/04:37pm - - - - - SSW 52 70 28 38 - - -
29/04:30pm - - - - - SSW 54 65 29 35 - - -
29/04:00pm - - - - - - - - - - - - -
29/01:30pm - - - - - SSW 54 69 29 37 - - -
29/01:00pm - - - - - SSW 56 74 30 40 - - -
29/12:31pm - - - - - SSW 50 69 27 37 - - -
29/12:30pm - - - - - SSW 52 69 28 37 - - -
29/12:01pm - - - - - SW 50 70 27 38 - - -
29/12:00pm - - - - - SW 50 61 27 33 - - -
29/11:33am - - - - - SW 57 76 31 41 - - -
29/11:30am - - - - - SW 61 76 33 41 - - -
29/11:00am - - - - - SSW 61 76 33 41 - - -
29/10:30am - - - - - SW 59 76 32 41 - - -
29/10:06am - - - - - SW 56 78 30 42 - - -
29/10:00am - - - - - SW 57 74 31 40 - - -
29/09:30am - - - - - SSW 61 82 33 44 - - -
29/09:09am - - - - - SW 63 82 34 44 - - -
29/09:00am - - - - - SW 59 76 32 41 - - -
29/08:30am - - - - - SW 67 87 36 47 - - -
29/08:00am - - - - - SW 65 85 35 46 - - -
29/07:30am - - - - - SW 69 87 37 47 - - -
29/07:00am - - - - - SW 63 82 34 44 - - -
29/06:30am - - - - - SW 67 87 36 47 - - -
29/06:02am - - - - - SW 65 85 35 46 - - -
29/06:00am - - - - - SW 65 80 35 43 - - -
29/05:37am - - - - - SW 65 85 35 46 - - -
29/05:30am - - - - - SW 65 82 35 44 - - -
29/05:04am - - - - - SW 63 85 34 46 - - -
29/05:00am - - - - - SW 63 78 34 42 - - -
29/04:30am - - - - - SW 67 95 36 51 - - -
29/04:00am - - - - - SW 74 95 40 51 - - -
29/03:30am - - - - - SW 70 96 38 52 - - -
29/03:00am - - - - - SW 72 93 39 50 - - -
29/02:30am - - - - - SW 72 98 39 53 - - -
29/02:00am - - - - - WSW 70 91 38 49 - - -
29/01:30am - - - - - SW 67 87 36 47 - - -
29/01:00am - - - - - SW 70 93 38 50 - - -
29/12:30am - - - - - SW 67 91 36 49 - - -
29/12:00am - - - - - WSW 69 89 37 48 - - -
 
Date/Time
CST
Temp
°C
App
Temp
°C
Dew
Point
°C
Rel
Hum
%
Delta-T
°C
Wind Press
QNH
hPa
Press
MSL
hPa
Rain since
9am
mm
Dir  Spd
km/h
Gust
km/h
Spd
kts
Gust
kts
28/11:30pm - - - - - WSW 69 89 37 48 - - -
28/11:00pm - - - - - SW 70 95 38 51 - - -
28/10:30pm - - - - - WSW 69 100 37 54 - - -
28/10:28pm - - - - - SW 65 100 35 54 - - -
28/10:00pm - - - - - WSW 56 80 30 43 - - -

Other Formats:

Comma delimited format used in spreadsheet applications
http://www.bom.gov.au/fwo/IDS60801/IDS60801.95653.axf

JavaScript Object Notation format (JSON) in row-major order
http://www.bom.gov.au/fwo/IDS60801/IDS60801.95653.json